Butes — A8UR6 — position and weather

sailwx.info

Track history (hours):
 
Tides and Currents Weather Stations Pressure Air Temp Water Temp Dewpoint Dewpoint Depression Visibility Wind Speed Wind Dir Waves Ship Positions

Butes

Last reported at 2017-Apr-25 10:29 UTC. Time now 2017-Apr-26 11:48 UTC.
Position N 50°22' W 004°08'.

Length 90 m; draft 3.5 m.

Type: Cargo ship. MMSI: 636091937.

Date/timePositionNaut miles runAvg speedWind from/ knotsBaromVisibWave heightAir tempDewpointWater temp
2017-Apr-25 10:29N 50°22' W 004°08'6 6.2
2017-Apr-25 09:30N 50°16' W 004°06'5 9.8
2017-Apr-25 09:00N 50°13' W 004°00'5 9.7
2017-Apr-25 08:30N 50°09' W 003°55'5 9.9
2017-Apr-25 08:00N 50°06' W 003°49'610.0
2017-Apr-25 07:27N 50°07' W 003°40'410.2
2017-Apr-25 07:00N 50°08' W 003°33'5 9.8
2017-Apr-25 06:30N 50°09' W 003°26'5 9.7
2017-Apr-25 06:00N 50°10' W 003°18'5 9.5
2017-Apr-25 05:30N 50°11' W 003°11'5 9.6
2017-Apr-25 05:00N 50°12' W 003°04'6912.5
2017-Apr-24 23:30N 50°30' W 001°19'1214.0
2017-Apr-24 22:38N 50°33' W 001°01'213.0
2017-Apr-24 22:30N 50°33' W 000°58'612.6
2017-Apr-24 22:00N 50°34' W 000°49'611.8
2017-Apr-24 21:30N 50°36' W 000°40'611.2
2017-Apr-24 21:00N 50°38' W 000°31'510.2
2017-Apr-24 20:30N 50°41' W 000°25'510.8
2017-Apr-24 20:00N 50°45' W 000°19'510.4
2017-Apr-24 19:30N 50°49' W 000°15'1 1.8
2017-Apr-24 19:00N 50°50' W 000°14'0 0.6
2017-Apr-24 18:28N 50°50' W 000°14'0 0.0
2017-Apr-24 17:58N 50°50' W 000°14'0 0.0
2017-Apr-24 17:28N 50°50' W 000°14'0 0.0
2017-Apr-24 16:58N 50°50' W 000°14'0 0.0
2017-Apr-24 16:25N 50°50' W 000°14'0 0.0
2017-Apr-24 15:58N 50°50' W 000°14'0 0.0
2017-Apr-24 15:28N 50°50' W 000°14'0 0.0
2017-Apr-24 14:58N 50°50' W 000°14'0 0.0
2017-Apr-24 14:28N 50°50' W 000°14'0 0.0
2017-Apr-24 13:28N 50°50' W 000°14'0 0.0
2017-Apr-24 12:58N 50°50' W 000°14'0 0.0
2017-Apr-24 12:28N 50°50' W 000°14'0 0.0
2017-Apr-24 11:58N 50°50' W 000°14'0 0.0
2017-Apr-24 11:28N 50°50' W 000°14'0 0.0
2017-Apr-24 10:58N 50°50' W 000°14'0 0.0
2017-Apr-24 10:28N 50°50' W 000°14'0 0.0
2017-Apr-24 09:58N 50°50' W 000°14'0 0.0
2017-Apr-24 09:28N 50°50' W 000°14'0 0.0
2017-Apr-24 08:58N 50°50' W 000°14'0 0.0
2017-Apr-24 08:28N 50°50' W 000°14'0 0.0
2017-Apr-24 07:58N 50°50' W 000°14'0 0.0
2017-Apr-24 07:28N 50°50' W 000°14'0 0.0
2017-Apr-24 06:58N 50°50' W 000°14'0 0.0
2017-Apr-24 06:28N 50°50' W 000°14'0 0.0
2017-Apr-24 05:58N 50°50' W 000°14'0 0.0
2017-Apr-24 05:28N 50°50' W 000°14'0 0.0
2017-Apr-24 04:58N 50°50' W 000°14'0 0.0
2017-Apr-24 04:22N 50°50' W 000°14'0 0.0
2017-Apr-24 03:58N 50°50' W 000°14'0 0.0
2017-Apr-24 03:28N 50°50' W 000°14'0 0.0
2017-Apr-24 02:58N 50°50' W 000°14'0 0.0
2017-Apr-24 02:28N 50°50' W 000°14'0 0.0
2017-Apr-24 01:55N 50°50' W 000°14'0 0.0
2017-Apr-24 01:28N 50°50' W 000°14'0 0.0
2017-Apr-24 00:58N 50°50' W 000°14'0 0.0
2017-Apr-24 00:04N 50°50' W 000°14'0 0.0
2017-Apr-23 23:58N 50°50' W 000°14'0 0.0
2017-Apr-23 23:25N 50°50' W 000°14'0 0.0
2017-Apr-23 22:58N 50°50' W 000°14'0 0.0
2017-Apr-23 22:25N 50°50' W 000°14'0 0.0
2017-Apr-23 21:58N 50°50' W 000°14'0 0.0
2017-Apr-23 21:28N 50°50' W 000°14'0 0.0
2017-Apr-23 20:58N 50°50' W 000°14'0 0.0
2017-Apr-23 20:22N 50°50' W 000°14'0 0.0
2017-Apr-23 19:58N 50°50' W 000°14'0 0.0
2017-Apr-23 19:28N 50°50' W 000°14'0 0.0
2017-Apr-23 18:49N 50°50' W 000°14'0 0.0
2017-Apr-23 18:28N 50°50' W 000°14'0 0.0
2017-Apr-23 17:58N 50°50' W 000°14'0 0.0
2017-Apr-23 17:22N 50°50' W 000°14'0 0.0
2017-Apr-23 16:58N 50°50' W 000°14'0 0.0
2017-Apr-23 16:22N 50°50' W 000°14'0 0.0
2017-Apr-23 15:58N 50°50' W 000°14'0 0.0
2017-Apr-23 15:28N 50°50' W 000°14'0 0.0
2017-Apr-23 14:58N 50°50' W 000°14'0 0.0
2017-Apr-23 13:52N 50°50' W 000°14'0 0.0
2017-Apr-23 13:25N 50°50' W 000°14'0 0.0
2017-Apr-23 12:58N 50°50' W 000°14'0 0.0
2017-Apr-23 12:25N 50°50' W 000°14'0 0.0
2017-Apr-23 11:55N 50°50' W 000°14'0 0.0
2017-Apr-23 11:25N 50°50' W 000°14'0 0.0
2017-Apr-23 10:58N 50°50' W 000°14'0 0.0
2017-Apr-23 10:28N 50°50' W 000°14'0 0.0
2017-Apr-23 09:58N 50°50' W 000°14'0 0.0
2017-Apr-23 09:28N 50°50' W 000°14'0 0.2
2017-Apr-23 09:00N 50°50' W 000°14'0 0.7
2017-Apr-23 08:30N 50°50' W 000°14'2 3.6
2017-Apr-23 08:00N 50°48' W 000°15'2 3.4
2017-Apr-23 07:31N 50°46' W 000°16'0 0.7
2017-Apr-23 07:00N 50°46' W 000°16'2 3.4
2017-Apr-23 06:30N 50°45' W 000°18'4 7.6
2017-Apr-23 06:00N 50°43' W 000°22'510.6
2017-Apr-23 05:30N 50°39' W 000°28'611.1
2017-Apr-23 05:00N 50°37' W 000°36'2111.8
2017-Apr-23 03:11N 50°31' W 001°09'72 9.2
2017-Apr-22 19:20N 50°14' W 002°59'310.2
2017-Apr-22 19:00N 50°13' W 003°04'510.3
2017-Apr-22 18:30N 50°12' W 003°11'510.6
2017-Apr-22 18:00N 50°11' W 003°20'611.1
2017-Apr-22 17:30N 50°10' W 003°28'611.2
2017-Apr-22 17:00N 50°08' W 003°36'611.3
2017-Apr-22 16:30N 50°07' W 003°45'3910.9
2017-Apr-22 12:54N 49°57' W 004°44'210 7.2
2017-Apr-21 07:45N 53°25' W 004°01'310.5
2017-Apr-21 07:30N 53°24' W 003°57'510.4
2017-Apr-21 07:00N 53°22' W 003°49'510.3
2017-Apr-21 06:30N 53°20' W 003°41'3 5.2
2017-Apr-21 06:00N 53°18' W 003°40'0 0.2
2017-Apr-21 05:24N 53°18' W 003°40'0 0.0
2017-Apr-21 05:00N 53°18' W 003°40'0 0.0
2017-Apr-21 04:30N 53°18' W 003°40'0 0.0
2017-Apr-21 03:57N 53°18' W 003°40'0 0.0
2017-Apr-21 03:30N 53°18' W 003°40'0 0.0
2017-Apr-21 02:57N 53°18' W 003°40'0 0.0
2017-Apr-21 02:30N 53°18' W 003°40'0 0.3
2017-Apr-21 02:00N 53°18' W 003°40'2 3.3
2017-Apr-21 01:30N 53°19' W 003°40'1 2.9
2017-Apr-21 01:00N 53°21' W 003°41'2 4.2
2017-Apr-21 00:30N 53°21' W 003°44'3 4.5
2017-Apr-20 23:55N 53°22' W 003°49'2 5.2
2017-Apr-20 23:30N 53°23' W 003°52'510.2
2017-Apr-20 22:59N 53°27' W 003°58'6010.2
2017-Apr-20 17:02N 54°15' W 005°00'111.4
2017-Apr-20 16:57N 54°16' W 005°01'511.4
2017-Apr-20 16:30N 54°21' W 005°03'611.4
2017-Apr-20 16:00N 54°26' W 005°05'611.8
2017-Apr-20 15:30N 54°32' W 005°07'611.8
2017-Apr-20 15:00N 54°38' W 005°09'612.5
2017-Apr-20 14:30N 54°44' W 005°12'1212.1
2017-Apr-20 13:30N 54°56' W 005°16'612.2
2017-Apr-20 13:00N 55°02' W 005°16'  
2017-Apr-17 00:12N 55°13' W 005°46'211.7
2017-Apr-17 00:00N 55°13' W 005°50'611.4
2017-Apr-16 23:30N 55°15' W 005°59'613.0
2017-Apr-16 23:01N 55°20' W 006°06'611.9
2017-Apr-16 22:31N 55°22' W 006°16'611.6
2017-Apr-16 22:01N 55°23' W 006°26'710.9
2017-Apr-16 21:23N 55°25' W 006°38'410.6
2017-Apr-16 20:58N 55°26' W 006°45'8 9.9
2017-Apr-16 20:12N 55°28' W 006°58'2 9.9
2017-Apr-16 20:00N 55°28' W 007°01'5 9.8
2017-Apr-16 19:30N 55°29' W 007°10'5 9.0
2017-Apr-16 19:00N 55°30' W 007°18'6 9.8
2017-Apr-16 18:26N 55°28' W 007°27'5 9.4
2017-Apr-16 17:56N 55°27' W 007°35'4 9.5
2017-Apr-16 17:28N 55°25' W 007°42'4 9.5
2017-Apr-16 17:00N 55°24' W 007°50'6 9.8
2017-Apr-16 16:25N 55°22' W 007°59'4 9.7
2017-Apr-16 15:59N 55°21' W 008°06'5 9.9
2017-Apr-16 15:28N 55°19' W 008°15'4 9.2
2017-Apr-16 15:00N 55°17' W 008°21'6 9.5
2017-Apr-16 14:22N 55°13' W 008°29'8 9.4
2017-Apr-16 13:29N 55°07' W 008°40'57 9.5
2017-Apr-16 07:30N 54°28' W 009°51'27 9.5
2017-Apr-16 04:38N 54°08' W 010°22'2 9.7
2017-Apr-16 04:26N 54°06' W 010°24'5 9.1
2017-Apr-16 03:56N 54°02' W 010°26'4 9.1
2017-Apr-16 03:30N 53°58' W 010°26'5 9.2
2017-Apr-16 02:56N 53°53' W 010°26'4 9.2
2017-Apr-16 02:30N 53°49' W 010°26'5 9.3
2017-Apr-16 01:59N 53°44' W 010°26'4 9.4
2017-Apr-16 01:30N 53°39' W 010°26'10 9.4
2017-Apr-16 00:27N 53°29' W 010°25'5 9.2
2017-Apr-15 23:53N 53°25' W 010°21'  
Track history (hours):
 
Tides and Currents Weather Stations Pressure Air Temp Water Temp Dewpoint Dewpoint Depression Visibility Wind Speed Wind Dir Waves Ship Positions

Butes

Last reported at 2017-Apr-25 10:29 UTC. Time now 2017-Apr-26 11:48 UTC.
Position N 50°22' W 004°08'.

Length 90 m; draft 3.5 m.

Type: Cargo ship. MMSI: 636091937.

Date/timePositionNaut miles runAvg speedWind from/ knotsBaromVisibWave heightAir tempDewpointWater temp
2017-Apr-25 10:29N 50°22' W 004°08'6 6.2
2017-Apr-25 09:30N 50°16' W 004°06'5 9.8
2017-Apr-25 09:00N 50°13' W 004°00'5 9.7
2017-Apr-25 08:30N 50°09' W 003°55'5 9.9
2017-Apr-25 08:00N 50°06' W 003°49'610.0
2017-Apr-25 07:27N 50°07' W 003°40'410.2
2017-Apr-25 07:00N 50°08' W 003°33'5 9.8
2017-Apr-25 06:30N 50°09' W 003°26'5 9.7
2017-Apr-25 06:00N 50°10' W 003°18'5 9.5
2017-Apr-25 05:30N 50°11' W 003°11'5 9.6
2017-Apr-25 05:00N 50°12' W 003°04'6912.5
2017-Apr-24 23:30N 50°30' W 001°19'1214.0
2017-Apr-24 22:38N 50°33' W 001°01'213.0
2017-Apr-24 22:30N 50°33' W 000°58'612.6
2017-Apr-24 22:00N 50°34' W 000°49'611.8
2017-Apr-24 21:30N 50°36' W 000°40'611.2
2017-Apr-24 21:00N 50°38' W 000°31'510.2
2017-Apr-24 20:30N 50°41' W 000°25'510.8
2017-Apr-24 20:00N 50°45' W 000°19'510.4
2017-Apr-24 19:30N 50°49' W 000°15'1 1.8
2017-Apr-24 19:00N 50°50' W 000°14'0 0.6
2017-Apr-24 18:28N 50°50' W 000°14'0 0.0
2017-Apr-24 17:58N 50°50' W 000°14'0 0.0
2017-Apr-24 17:28N 50°50' W 000°14'0 0.0
2017-Apr-24 16:58N 50°50' W 000°14'0 0.0
2017-Apr-24 16:25N 50°50' W 000°14'0 0.0
2017-Apr-24 15:58N 50°50' W 000°14'0 0.0
2017-Apr-24 15:28N 50°50' W 000°14'0 0.0
2017-Apr-24 14:58N 50°50' W 000°14'0 0.0
2017-Apr-24 14:28N 50°50' W 000°14'0 0.0
2017-Apr-24 13:28N 50°50' W 000°14'0 0.0
2017-Apr-24 12:58N 50°50' W 000°14'0 0.0
2017-Apr-24 12:28N 50°50' W 000°14'0 0.0
2017-Apr-24 11:58N 50°50' W 000°14'0 0.0
2017-Apr-24 11:28N 50°50' W 000°14'0 0.0
2017-Apr-24 10:58N 50°50' W 000°14'0 0.0
2017-Apr-24 10:28N 50°50' W 000°14'0 0.0
2017-Apr-24 09:58N 50°50' W 000°14'0 0.0
2017-Apr-24 09:28N 50°50' W 000°14'0 0.0
2017-Apr-24 08:58N 50°50' W 000°14'0 0.0
2017-Apr-24 08:28N 50°50' W 000°14'0 0.0
2017-Apr-24 07:58N 50°50' W 000°14'0 0.0
2017-Apr-24 07:28N 50°50' W 000°14'0 0.0
2017-Apr-24 06:58N 50°50' W 000°14'0 0.0
2017-Apr-24 06:28N 50°50' W 000°14'0 0.0
2017-Apr-24 05:58N 50°50' W 000°14'0 0.0
2017-Apr-24 05:28N 50°50' W 000°14'0 0.0
2017-Apr-24 04:58N 50°50' W 000°14'0 0.0
2017-Apr-24 04:22N 50°50' W 000°14'0 0.0
2017-Apr-24 03:58N 50°50' W 000°14'0 0.0
2017-Apr-24 03:28N 50°50' W 000°14'0 0.0
2017-Apr-24 02:58N 50°50' W 000°14'0 0.0
2017-Apr-24 02:28N 50°50' W 000°14'0 0.0
2017-Apr-24 01:55N 50°50' W 000°14'0 0.0
2017-Apr-24 01:28N 50°50' W 000°14'0 0.0
2017-Apr-24 00:58N 50°50' W 000°14'0 0.0
2017-Apr-24 00:04N 50°50' W 000°14'0 0.0
2017-Apr-23 23:58N 50°50' W 000°14'0 0.0
2017-Apr-23 23:25N 50°50' W 000°14'0 0.0
2017-Apr-23 22:58N 50°50' W 000°14'0 0.0
2017-Apr-23 22:25N 50°50' W 000°14'0 0.0
2017-Apr-23 21:58N 50°50' W 000°14'0 0.0
2017-Apr-23 21:28N 50°50' W 000°14'0 0.0
2017-Apr-23 20:58N 50°50' W 000°14'0 0.0
2017-Apr-23 20:22N 50°50' W 000°14'0 0.0
2017-Apr-23 19:58N 50°50' W 000°14'0 0.0
2017-Apr-23 19:28N 50°50' W 000°14'0 0.0
2017-Apr-23 18:49N 50°50' W 000°14'0 0.0
2017-Apr-23 18:28N 50°50' W 000°14'0 0.0
2017-Apr-23 17:58N 50°50' W 000°14'0 0.0
2017-Apr-23 17:22N 50°50' W 000°14'0 0.0
2017-Apr-23 16:58N 50°50' W 000°14'0 0.0
2017-Apr-23 16:22N 50°50' W 000°14'0 0.0
2017-Apr-23 15:58N 50°50' W 000°14'0 0.0
2017-Apr-23 15:28N 50°50' W 000°14'0 0.0
2017-Apr-23 14:58N 50°50' W 000°14'0 0.0
2017-Apr-23 13:52N 50°50' W 000°14'0 0.0
2017-Apr-23 13:25N 50°50' W 000°14'0 0.0
2017-Apr-23 12:58N 50°50' W 000°14'0 0.0
2017-Apr-23 12:25N 50°50' W 000°14'0 0.0
2017-Apr-23 11:55N 50°50' W 000°14'0 0.0
2017-Apr-23 11:25N 50°50' W 000°14'0 0.0
2017-Apr-23 10:58N 50°50' W 000°14'0 0.0
2017-Apr-23 10:28N 50°50' W 000°14'0 0.0
2017-Apr-23 09:58N 50°50' W 000°14'0 0.0
2017-Apr-23 09:28N 50°50' W 000°14'0 0.2
2017-Apr-23 09:00N 50°50' W 000°14'0 0.7
2017-Apr-23 08:30N 50°50' W 000°14'2 3.6
2017-Apr-23 08:00N 50°48' W 000°15'2 3.4
2017-Apr-23 07:31N 50°46' W 000°16'0 0.7
2017-Apr-23 07:00N 50°46' W 000°16'2 3.4
2017-Apr-23 06:30N 50°45' W 000°18'4 7.6
2017-Apr-23 06:00N 50°43' W 000°22'510.6
2017-Apr-23 05:30N 50°39' W 000°28'611.1
2017-Apr-23 05:00N 50°37' W 000°36'2111.8
2017-Apr-23 03:11N 50°31' W 001°09'72 9.2
2017-Apr-22 19:20N 50°14' W 002°59'310.2
2017-Apr-22 19:00N 50°13' W 003°04'510.3
2017-Apr-22 18:30N 50°12' W 003°11'510.6
2017-Apr-22 18:00N 50°11' W 003°20'611.1
2017-Apr-22 17:30N 50°10' W 003°28'611.2
2017-Apr-22 17:00N 50°08' W 003°36'611.3
2017-Apr-22 16:30N 50°07' W 003°45'3910.9
2017-Apr-22 12:54N 49°57' W 004°44'210 7.2
2017-Apr-21 07:45N 53°25' W 004°01'310.5
2017-Apr-21 07:30N 53°24' W 003°57'510.4
2017-Apr-21 07:00N 53°22' W 003°49'510.3
2017-Apr-21 06:30N 53°20' W 003°41'3 5.2
2017-Apr-21 06:00N 53°18' W 003°40'0 0.2
2017-Apr-21 05:24N 53°18' W 003°40'0 0.0
2017-Apr-21 05:00N 53°18' W 003°40'0 0.0
2017-Apr-21 04:30N 53°18' W 003°40'0 0.0
2017-Apr-21 03:57N 53°18' W 003°40'0 0.0
2017-Apr-21 03:30N 53°18' W 003°40'0 0.0
2017-Apr-21 02:57N 53°18' W 003°40'0 0.0
2017-Apr-21 02:30N 53°18' W 003°40'0 0.3
2017-Apr-21 02:00N 53°18' W 003°40'2 3.3
2017-Apr-21 01:30N 53°19' W 003°40'1 2.9
2017-Apr-21 01:00N 53°21' W 003°41'2 4.2
2017-Apr-21 00:30N 53°21' W 003°44'3 4.5
2017-Apr-20 23:55N 53°22' W 003°49'2 5.2
2017-Apr-20 23:30N 53°23' W 003°52'510.2
2017-Apr-20 22:59N 53°27' W 003°58'6010.2
2017-Apr-20 17:02N 54°15' W 005°00'111.4
2017-Apr-20 16:57N 54°16' W 005°01'511.4
2017-Apr-20 16:30N 54°21' W 005°03'611.4
2017-Apr-20 16:00N 54°26' W 005°05'611.8
2017-Apr-20 15:30N 54°32' W 005°07'611.8
2017-Apr-20 15:00N 54°38' W 005°09'612.5
2017-Apr-20 14:30N 54°44' W 005°12'1212.1
2017-Apr-20 13:30N 54°56' W 005°16'612.2
2017-Apr-20 13:00N 55°02' W 005°16'  
2017-Apr-17 00:12N 55°13' W 005°46'211.7
2017-Apr-17 00:00N 55°13' W 005°50'611.4
2017-Apr-16 23:30N 55°15' W 005°59'613.0
2017-Apr-16 23:01N 55°20' W 006°06'611.9
2017-Apr-16 22:31N 55°22' W 006°16'611.6
2017-Apr-16 22:01N 55°23' W 006°26'710.9
2017-Apr-16 21:23N 55°25' W 006°38'410.6
2017-Apr-16 20:58N 55°26' W 006°45'8 9.9
2017-Apr-16 20:12N 55°28' W 006°58'2 9.9
2017-Apr-16 20:00N 55°28' W 007°01'5 9.8
2017-Apr-16 19:30N 55°29' W 007°10'5 9.0
2017-Apr-16 19:00N 55°30' W 007°18'6 9.8
2017-Apr-16 18:26N 55°28' W 007°27'5 9.4
2017-Apr-16 17:56N 55°27' W 007°35'4 9.5
2017-Apr-16 17:28N 55°25' W 007°42'4 9.5
2017-Apr-16 17:00N 55°24' W 007°50'6 9.8
2017-Apr-16 16:25N 55°22' W 007°59'4 9.7
2017-Apr-16 15:59N 55°21' W 008°06'5 9.9
2017-Apr-16 15:28N 55°19' W 008°15'4 9.2
2017-Apr-16 15:00N 55°17' W 008°21'6 9.5
2017-Apr-16 14:22N 55°13' W 008°29'8 9.4
2017-Apr-16 13:29N 55°07' W 008°40'57 9.5
2017-Apr-16 07:30N 54°28' W 009°51'27 9.5
2017-Apr-16 04:38N 54°08' W 010°22'2 9.7
2017-Apr-16 04:26N 54°06' W 010°24'5 9.1
2017-Apr-16 03:56N 54°02' W 010°26'4 9.1
2017-Apr-16 03:30N 53°58' W 010°26'5 9.2
2017-Apr-16 02:56N 53°53' W 010°26'4 9.2
2017-Apr-16 02:30N 53°49' W 010°26'5 9.3
2017-Apr-16 01:59N 53°44' W 010°26'4 9.4
2017-Apr-16 01:30N 53°39' W 010°26'10 9.4
2017-Apr-16 00:27N 53°29' W 010°25'5 9.2
2017-Apr-15 23:53N 53°25' W 010°21'  

Dump ship's entire track history